createdAt,value
2024-03-08T00:00:02.700Z,43.19
2024-03-08T00:01:02.674Z,43.31
2024-03-08T00:02:02.856Z,43.28
2024-03-08T00:03:03.038Z,43.18
2024-03-08T00:04:03.046Z,43.21
2024-03-08T00:05:03.121Z,43.27
2024-03-08T00:06:03.222Z,43.29
2024-03-08T00:07:03.267Z,43.23
2024-03-08T00:08:03.390Z,43.07
2024-03-08T00:09:03.530Z,42.97
2024-03-08T00:10:03.635Z,43.07
2024-03-08T00:11:03.784Z,43.02
2024-03-08T00:12:03.916Z,42.96
2024-03-08T00:13:03.870Z,42.96
2024-03-08T00:14:04.005Z,42.84
2024-03-08T00:15:04.136Z,42.95
2024-03-08T00:16:04.179Z,42.85
2024-03-08T00:17:04.342Z,42.70
2024-03-08T00:18:04.489Z,42.81
2024-03-08T00:19:04.525Z,42.77
2024-03-08T00:20:04.557Z,42.78
2024-03-08T00:21:04.780Z,42.71
2024-03-08T00:22:04.748Z,42.63
2024-03-08T00:23:04.853Z,42.78
2024-03-08T00:24:05.081Z,42.64
2024-03-08T00:25:05.053Z,42.73
2024-03-08T00:26:05.101Z,42.70
2024-03-08T00:27:05.373Z,42.68
2024-03-08T00:28:05.317Z,42.56
2024-03-08T00:29:05.375Z,42.64
2024-03-08T00:30:05.617Z,42.47
2024-03-08T00:31:05.620Z,42.51
2024-03-08T00:32:05.659Z,42.43
2024-03-08T00:33:05.884Z,42.39
2024-03-08T00:34:05.898Z,42.34
2024-03-08T00:35:05.959Z,42.48
2024-03-08T00:36:06.098Z,42.37
2024-03-08T00:37:06.185Z,42.26
2024-03-08T00:38:06.261Z,42.20
2024-03-08T00:39:06.397Z,42.39
2024-03-08T00:40:06.531Z,42.36
2024-03-08T00:41:06.589Z,42.25
2024-03-08T00:42:06.809Z,42.32
2024-03-08T00:43:06.758Z,42.33
2024-03-08T00:44:06.880Z,42.20
2024-03-08T00:45:06.989Z,42.23
2024-03-08T00:46:07.146Z,42.36
2024-03-08T00:47:07.274Z,42.17
2024-03-08T00:48:07.401Z,42.11
2024-03-08T00:49:07.417Z,42.12
2024-03-08T00:50:07.517Z,42.14
2024-03-08T00:51:07.825Z,42.01
2024-03-08T00:52:07.746Z,42.06
2024-03-08T00:53:07.889Z,42.12
2024-03-08T00:54:07.996Z,42.11
2024-03-08T00:55:08.115Z,42.30
2024-03-08T00:56:08.153Z,42.30
2024-03-08T00:57:08.485Z,42.27
2024-03-08T00:58:08.374Z,42.32
2024-03-08T00:59:08.441Z,42.30
2024-03-08T01:00:08.541Z,42.24
2024-03-08T01:01:08.769Z,42.25
2024-03-08T01:02:08.756Z,42.20
2024-03-08T01:03:08.901Z,42.25
2024-03-08T01:04:08.981Z,42.27
2024-03-08T01:05:09.087Z,42.15
2024-03-08T01:06:09.298Z,42.28
2024-03-08T01:07:09.250Z,42.25
2024-03-08T01:08:09.367Z,42.22
2024-03-08T01:09:09.551Z,42.17
2024-03-08T01:10:09.640Z,42.06
2024-03-08T01:11:09.772Z,42.12
2024-03-08T01:12:09.863Z,42.11
2024-03-08T01:13:09.865Z,42.19
2024-03-08T01:14:09.997Z,42.19
2024-03-08T01:15:10.271Z,42.12
2024-03-08T01:16:11.021Z,42.07
2024-03-08T01:17:10.347Z,42.09
2024-03-08T01:18:10.442Z,42.08
2024-03-08T01:19:10.553Z,42.10
2024-03-08T01:20:10.493Z,42.08
2024-03-08T01:21:10.586Z,42.09
2024-03-08T01:22:10.662Z,42.11
2024-03-08T01:23:10.641Z,42.09
2024-03-08T01:24:10.788Z,42.05
2024-03-08T01:25:10.745Z,42.07
2024-03-08T01:26:10.800Z,42.07
2024-03-08T01:27:11.059Z,42.09
2024-03-08T01:28:10.986Z,42.09
2024-03-08T01:29:11.084Z,42.03
2024-03-08T01:30:11.296Z,42.05
2024-03-08T01:31:11.221Z,42.03
2024-03-08T01:32:11.408Z,41.99
2024-03-08T01:33:11.481Z,41.98
2024-03-08T01:34:11.604Z,42.01
2024-03-08T01:35:11.640Z,42.01
2024-03-08T01:36:11.824Z,42.05
2024-03-08T01:37:11.818Z,41.99
2024-03-08T01:38:11.923Z,42.03
2024-03-08T01:39:12.117Z,42.01
2024-03-08T01:40:12.092Z,41.90
2024-03-08T01:41:12.171Z,41.93
2024-03-08T01:42:12.348Z,41.95
2024-03-08T01:43:12.411Z,41.86
2024-03-08T01:44:12.470Z,41.89
2024-03-08T01:45:12.681Z,41.87
2024-03-08T01:46:12.624Z,41.85
2024-03-08T01:47:12.808Z,41.87
2024-03-08T01:48:13.067Z,41.80
2024-03-08T01:49:13.060Z,41.76
2024-03-08T01:50:13.145Z,41.78
2024-03-08T01:51:13.291Z,41.77
2024-03-08T01:52:13.338Z,41.75
2024-03-08T01:53:13.386Z,41.71
2024-03-08T01:54:13.558Z,41.69
2024-03-08T01:55:13.668Z,41.75
2024-03-08T01:56:13.776Z,41.70
2024-03-08T01:57:13.987Z,41.71
2024-03-08T01:58:13.926Z,41.66
2024-03-08T01:59:14.007Z,41.65
2024-03-08T02:00:14.258Z,41.67
2024-03-08T02:01:14.243Z,41.70
2024-03-08T02:02:14.279Z,41.65
2024-03-08T02:03:14.407Z,41.62
2024-03-08T02:04:14.458Z,41.61
2024-03-08T02:05:14.519Z,41.62
2024-03-08T02:06:14.630Z,41.67
2024-03-08T02:07:14.716Z,41.61
2024-03-08T02:08:14.892Z,41.62
2024-03-08T02:09:15.093Z,41.61
2024-03-08T02:10:15.115Z,41.55
2024-03-08T02:11:15.249Z,41.54
2024-03-08T02:12:15.373Z,41.51
2024-03-08T02:13:15.393Z,41.53
2024-03-08T02:14:15.572Z,41.42
2024-03-08T02:15:15.739Z,41.46
2024-03-08T02:16:15.739Z,41.44
2024-03-08T02:17:15.843Z,41.42
2024-03-08T02:18:15.941Z,41.49
2024-03-08T02:19:16.011Z,41.46
2024-03-08T02:20:16.092Z,41.42
2024-03-08T02:21:16.210Z,41.39
2024-03-08T02:22:16.258Z,41.40
2024-03-08T02:23:16.355Z,41.32
2024-03-08T02:24:16.513Z,41.35
2024-03-08T02:25:16.573Z,41.27
2024-03-08T02:26:16.629Z,41.26
2024-03-08T02:27:16.769Z,41.30
2024-03-08T02:28:16.826Z,41.30
2024-03-08T02:29:16.852Z,41.25
2024-03-08T02:30:17.025Z,41.25
2024-03-08T02:31:16.992Z,41.22
2024-03-08T02:32:17.090Z,41.24
2024-03-08T02:33:17.311Z,41.27
2024-03-08T02:34:17.414Z,41.22
2024-03-08T02:35:17.495Z,41.15
2024-03-08T02:36:17.926Z,41.17
2024-03-08T02:37:17.618Z,41.13
2024-03-08T02:38:17.697Z,41.10
2024-03-08T02:39:17.764Z,41.10
2024-03-08T02:40:17.801Z,41.04
2024-03-08T02:41:17.822Z,40.97
2024-03-08T02:42:17.964Z,41.03
2024-03-08T02:43:17.939Z,41.02
2024-03-08T02:44:18.018Z,40.99
2024-03-08T02:45:18.057Z,40.99
2024-03-08T02:46:18.059Z,40.92
2024-03-08T02:47:18.123Z,40.95
2024-03-08T02:48:18.342Z,40.91
2024-03-08T02:49:18.220Z,40.83
2024-03-08T02:50:18.273Z,40.82
2024-03-08T02:51:18.375Z,40.80
2024-03-08T02:52:18.357Z,40.82
2024-03-08T02:53:18.366Z,40.82
2024-03-08T02:54:18.528Z,40.80
2024-03-08T02:55:18.527Z,40.80
2024-03-08T02:56:18.548Z,40.80
2024-03-08T02:57:18.604Z,40.79
2024-03-08T02:58:18.647Z,40.79
2024-03-08T02:59:18.700Z,40.80
2024-03-08T03:00:18.972Z,40.74
2024-03-08T03:01:19.065Z,40.77
2024-03-08T03:02:19.021Z,40.74
2024-03-08T03:03:19.177Z,40.69
2024-03-08T03:04:19.213Z,40.74
2024-03-08T03:05:19.345Z,40.70
2024-03-08T03:06:19.574Z,40.70
2024-03-08T03:07:19.747Z,40.69
2024-03-08T03:08:19.736Z,40.64
2024-03-08T03:09:19.862Z,40.64
2024-03-08T03:10:19.909Z,40.65
2024-03-08T03:11:20.090Z,40.56
2024-03-08T03:12:20.220Z,40.56
2024-03-08T03:13:20.202Z,40.53
2024-03-08T03:14:20.240Z,40.54
2024-03-08T03:15:21.166Z,40.45
2024-03-08T03:16:20.405Z,40.43
2024-03-08T03:17:20.542Z,40.42
2024-03-08T03:18:20.699Z,40.39
2024-03-08T03:19:20.693Z,40.41
2024-03-08T03:20:20.783Z,40.36
2024-03-08T03:21:20.952Z,40.38
2024-03-08T03:22:20.989Z,40.32
2024-03-08T03:23:21.036Z,40.33
2024-03-08T03:24:21.114Z,40.29
2024-03-08T03:25:21.157Z,40.30
2024-03-08T03:26:21.274Z,40.26
2024-03-08T03:27:21.382Z,40.28
2024-03-08T03:28:21.434Z,40.25
2024-03-08T03:29:21.505Z,40.18
2024-03-08T03:30:21.561Z,40.23
2024-03-08T03:31:21.631Z,40.21
2024-03-08T03:32:21.782Z,40.19
2024-03-08T03:33:21.864Z,40.16
2024-03-08T03:34:21.909Z,40.18
2024-03-08T03:35:22.162Z,40.13
2024-03-08T03:36:22.101Z,40.09
2024-03-08T03:37:22.161Z,40.04
2024-03-08T03:38:22.205Z,40.08
2024-03-08T03:39:22.309Z,40.09
2024-03-08T03:40:22.395Z,40.07
2024-03-08T03:41:22.429Z,40.09
2024-03-08T03:42:22.555Z,39.98
2024-03-08T03:43:22.588Z,39.99
2024-03-08T03:44:22.672Z,39.92
2024-03-08T03:45:22.756Z,39.90
2024-03-08T03:46:22.815Z,39.93
2024-03-08T03:47:22.901Z,39.86
2024-03-08T03:48:23.042Z,39.84
2024-03-08T03:49:23.093Z,39.83
2024-03-08T03:50:23.172Z,39.85
2024-03-08T03:51:23.228Z,39.85
2024-03-08T03:52:23.327Z,39.80
2024-03-08T03:53:23.424Z,39.82
2024-03-08T03:54:23.473Z,39.78
2024-03-08T03:55:23.575Z,39.74
2024-03-08T03:56:23.612Z,39.75
2024-03-08T03:57:23.706Z,39.75
2024-03-08T03:58:24.196Z,39.72
2024-03-08T03:59:23.868Z,39.71
2024-03-08T04:00:23.991Z,39.74
2024-03-08T04:01:24.127Z,39.71
2024-03-08T04:02:24.136Z,39.70
2024-03-08T04:03:24.207Z,39.66
2024-03-08T04:04:24.340Z,39.66
2024-03-08T04:05:24.500Z,39.67
2024-03-08T04:06:24.621Z,39.66
2024-03-08T04:07:24.695Z,39.61
2024-03-08T04:08:24.760Z,39.66
2024-03-08T04:09:24.839Z,39.61
2024-03-08T04:10:24.934Z,39.59
2024-03-08T04:11:25.020Z,39.58
2024-03-08T04:12:25.167Z,39.52
2024-03-08T04:13:25.165Z,39.52
2024-03-08T04:14:25.242Z,39.52
2024-03-08T04:15:25.558Z,39.50
2024-03-08T04:16:25.394Z,39.46
2024-03-08T04:17:25.536Z,39.48
2024-03-08T04:18:25.706Z,39.40
2024-03-08T04:19:25.638Z,39.46
2024-03-08T04:20:25.707Z,39.45
2024-03-08T04:21:25.897Z,39.43
2024-03-08T04:22:25.996Z,39.41
2024-03-08T04:23:26.055Z,39.37
2024-03-08T04:24:26.137Z,39.34
2024-03-08T04:25:26.194Z,39.36
2024-03-08T04:26:26.240Z,39.32
2024-03-08T04:27:26.356Z,39.33
2024-03-08T04:28:26.394Z,39.32
2024-03-08T04:29:26.498Z,39.28
2024-03-08T04:30:26.661Z,39.22
2024-03-08T04:31:26.736Z,39.17
2024-03-08T04:32:26.830Z,39.17
2024-03-08T04:33:26.953Z,39.21
2024-03-08T04:34:26.946Z,39.15
2024-03-08T04:35:27.063Z,39.18
2024-03-08T04:36:27.128Z,39.16
2024-03-08T04:37:27.207Z,39.10
2024-03-08T04:38:27.328Z,39.13
2024-03-08T04:39:27.342Z,39.08
2024-03-08T04:40:34.920Z,39.10
2024-03-08T04:41:34.972Z,39.07
2024-03-08T04:42:35.009Z,39.04
2024-03-08T04:43:35.044Z,39.05
2024-03-08T04:44:35.169Z,38.98
2024-03-08T04:45:35.101Z,39.02
2024-03-08T04:46:35.125Z,39.05
2024-03-08T04:47:35.253Z,39.04
2024-03-08T04:48:35.292Z,39.02
2024-03-08T04:49:35.296Z,38.93
2024-03-08T04:50:35.377Z,38.89
2024-03-08T04:51:35.486Z,38.91
2024-03-08T04:52:35.559Z,38.89
2024-03-08T04:53:35.712Z,38.87
2024-03-08T04:54:35.816Z,38.88
2024-03-08T04:55:35.833Z,38.85
2024-03-08T04:56:35.958Z,38.83
2024-03-08T04:57:36.038Z,38.78
2024-03-08T04:58:36.105Z,38.75
2024-03-08T04:59:36.176Z,38.77
2024-03-08T05:00:36.294Z,38.67
2024-03-08T05:01:36.454Z,38.76
2024-03-08T05:02:36.474Z,38.75
2024-03-08T05:03:36.524Z,38.66
2024-03-08T05:04:36.599Z,38.72
2024-03-08T05:05:36.781Z,38.71
2024-03-08T05:06:36.774Z,38.64
2024-03-08T05:07:36.930Z,38.56
2024-03-08T05:08:37.006Z,38.58
2024-03-08T05:09:37.041Z,38.45
2024-03-08T05:10:37.232Z,38.56
2024-03-08T05:11:37.276Z,38.55
2024-03-08T05:12:37.325Z,38.56
2024-03-08T05:13:37.376Z,38.44
2024-03-08T05:14:37.499Z,38.46
2024-03-08T05:15:37.550Z,38.48
2024-03-08T05:16:37.573Z,38.43
2024-03-08T05:17:37.797Z,38.44
2024-03-08T05:18:37.998Z,38.39
2024-03-08T05:19:37.988Z,38.39
2024-03-08T05:20:38.101Z,38.34
2024-03-08T05:21:38.138Z,38.28
2024-03-08T05:22:38.260Z,38.31
2024-03-08T05:23:38.286Z,38.25
2024-03-08T05:24:38.374Z,38.26
2024-03-08T05:25:38.439Z,38.22
2024-03-08T05:26:38.581Z,38.23
2024-03-08T05:27:38.738Z,38.25
2024-03-08T05:28:38.791Z,38.22
2024-03-08T05:29:38.878Z,38.17
2024-03-08T05:30:38.880Z,38.15
2024-03-08T05:31:39.010Z,38.08
2024-03-08T05:32:39.162Z,38.11
2024-03-08T05:33:39.269Z,38.03
2024-03-08T05:34:39.247Z,37.99
2024-03-08T05:35:39.333Z,38.01
2024-03-08T05:36:39.342Z,38.05
2024-03-08T05:37:39.490Z,37.96
2024-03-08T05:38:39.550Z,37.93
2024-03-08T05:39:39.624Z,37.98
2024-03-08T05:40:39.678Z,37.93
2024-03-08T05:41:39.865Z,37.94
2024-03-08T05:42:39.941Z,37.94
2024-03-08T05:43:39.993Z,37.86
2024-03-08T05:44:40.084Z,37.79
2024-03-08T05:45:40.170Z,37.83
2024-03-08T05:46:40.283Z,37.78
2024-03-08T05:47:40.363Z,37.66
2024-03-08T05:48:40.490Z,37.61
2024-03-08T05:49:40.456Z,37.79
2024-03-08T05:50:40.617Z,37.84
2024-03-08T05:51:40.855Z,37.88
2024-03-08T05:52:40.859Z,38.10
2024-03-08T05:53:40.978Z,38.93
2024-03-08T05:54:41.030Z,39.79
2024-03-08T05:55:41.076Z,40.13
2024-03-08T05:56:41.224Z,39.94
2024-03-08T05:57:41.561Z,39.97
2024-03-08T05:58:41.328Z,39.56
2024-03-08T05:59:41.436Z,40.30
2024-03-08T06:00:41.608Z,39.54
2024-03-08T06:01:41.533Z,40.78
2024-03-08T06:02:41.671Z,40.95
2024-03-08T06:03:41.704Z,43.08
2024-03-08T06:04:41.857Z,43.98
2024-03-08T06:05:41.925Z,44.30
2024-03-08T06:06:42.392Z,43.75
2024-03-08T06:07:42.274Z,43.45
2024-03-08T06:08:42.027Z,43.95
2024-03-08T06:09:41.992Z,44.10
2024-03-08T06:10:42.044Z,44.07
2024-03-08T06:11:42.149Z,43.54
2024-03-08T06:12:42.107Z,43.88
2024-03-08T06:13:42.113Z,44.37
2024-03-08T06:14:42.199Z,44.35
2024-03-08T06:15:42.204Z,44.59
2024-03-08T06:16:42.172Z,44.92
2024-03-08T06:17:42.294Z,45.73
2024-03-08T06:18:42.458Z,46.65
2024-03-08T06:19:42.273Z,45.95
2024-03-08T06:20:42.337Z,46.62
2024-03-08T06:21:42.383Z,46.49
2024-03-08T06:22:42.489Z,47.32
2024-03-08T06:23:42.583Z,47.22
2024-03-08T06:24:42.615Z,46.60
2024-03-08T06:25:42.709Z,47.68
2024-03-08T06:26:42.814Z,48.47
2024-03-08T06:27:42.892Z,48.45
2024-03-08T06:28:43.008Z,49.07
2024-03-08T06:29:43.108Z,49.10
2024-03-08T06:30:43.121Z,49.04
2024-03-08T06:31:43.232Z,49.75
2024-03-08T06:32:43.373Z,50.14
2024-03-08T06:33:43.542Z,49.93
2024-03-08T06:34:43.457Z,50.34
2024-03-08T06:35:43.568Z,50.27
2024-03-08T06:36:43.600Z,50.82
2024-03-08T06:37:43.695Z,50.93
2024-03-08T06:38:43.974Z,51.21
2024-03-08T06:39:43.947Z,51.37
2024-03-08T06:40:43.951Z,51.86
2024-03-08T06:41:44.052Z,52.04
2024-03-08T06:42:44.240Z,52.43
2024-03-08T06:43:44.189Z,52.44
2024-03-08T06:44:44.247Z,52.78
2024-03-08T06:45:44.300Z,52.80
2024-03-08T06:46:44.413Z,52.92
2024-03-08T06:47:44.710Z,53.10
2024-03-08T06:48:44.764Z,53.30
2024-03-08T06:49:44.684Z,53.65
2024-03-08T06:50:44.862Z,53.65
2024-03-08T06:51:44.893Z,53.81
2024-03-08T06:52:44.977Z,53.96
2024-03-08T06:53:45.074Z,54.39
2024-03-08T06:54:45.149Z,53.51
2024-03-08T06:55:45.239Z,53.31
2024-03-08T06:56:45.350Z,53.52
2024-03-08T06:57:45.390Z,53.42
2024-03-08T06:58:45.479Z,53.54
2024-03-08T06:59:45.616Z,54.02
2024-03-08T07:00:45.638Z,54.13
2024-03-08T07:01:45.728Z,54.46
2024-03-08T07:02:45.860Z,54.65
2024-03-08T07:03:46.240Z,54.78
2024-03-08T07:04:46.078Z,54.90
2024-03-08T07:05:46.186Z,54.98
2024-03-08T07:06:46.322Z,55.10
2024-03-08T07:07:46.348Z,55.25
2024-03-08T07:08:46.473Z,55.38
2024-03-08T07:09:46.552Z,55.37
2024-03-08T07:10:46.802Z,55.45
2024-03-08T07:11:46.834Z,55.55
2024-03-08T07:12:46.835Z,55.65
2024-03-08T07:13:46.961Z,55.71
2024-03-08T07:14:47.127Z,55.80
2024-03-08T07:15:47.123Z,55.93
2024-03-08T07:16:47.239Z,56.32
2024-03-08T07:17:47.325Z,56.42
2024-03-08T07:18:47.574Z,56.67
2024-03-08T07:19:47.464Z,56.68
2024-03-08T07:20:47.541Z,56.85
2024-03-08T07:21:47.714Z,56.95
2024-03-08T07:22:49.223Z,56.96
2024-03-08T07:23:47.984Z,57.08
2024-03-08T07:24:47.832Z,57.15
2024-03-08T07:25:47.901Z,57.26
2024-03-08T07:26:48.038Z,57.27
2024-03-08T07:27:48.010Z,57.20
2024-03-08T07:28:48.128Z,57.18
2024-03-08T07:29:48.261Z,57.26
2024-03-08T07:30:48.437Z,57.47
2024-03-08T07:31:48.412Z,57.61
2024-03-08T07:32:48.559Z,57.80
2024-03-08T07:33:48.645Z,58.02
2024-03-08T07:34:48.675Z,58.22
2024-03-08T07:35:48.761Z,58.33
2024-03-08T07:36:48.847Z,58.58
2024-03-08T07:37:48.951Z,58.67
2024-03-08T07:38:49.022Z,58.74
2024-03-08T07:39:49.061Z,58.73
2024-03-08T07:40:49.187Z,58.73
2024-03-08T07:41:49.344Z,58.76
2024-03-08T07:42:49.370Z,58.95
2024-03-08T07:43:49.490Z,59.39
2024-03-08T07:44:49.639Z,59.29
2024-03-08T07:45:49.646Z,58.45
2024-03-08T07:46:49.735Z,57.98
2024-03-08T07:47:49.960Z,56.78
2024-03-08T07:48:50.108Z,56.11
2024-03-08T07:49:50.049Z,55.96
2024-03-08T07:50:50.233Z,54.63
2024-03-08T07:51:50.257Z,54.09
2024-03-08T07:52:50.346Z,49.65
2024-03-08T07:53:50.496Z,50.25
2024-03-08T07:54:50.738Z,49.83
2024-03-08T07:55:50.738Z,51.38
2024-03-08T07:56:50.788Z,50.40
2024-03-08T07:57:50.839Z,50.34
2024-03-08T07:58:50.969Z,50.64
2024-03-08T07:59:51.043Z,49.82
2024-03-08T08:00:51.161Z,50.39
2024-03-08T08:01:51.408Z,50.44
2024-03-08T08:02:51.430Z,50.67
2024-03-08T08:03:51.505Z,50.63
2024-03-08T08:04:51.688Z,50.51
2024-03-08T08:05:51.698Z,50.36
2024-03-08T08:06:51.792Z,50.46
2024-03-08T08:07:52.919Z,50.78
2024-03-08T08:08:51.904Z,50.82
2024-03-08T08:09:51.913Z,51.01
2024-03-08T08:10:52.038Z,51.09
2024-03-08T08:11:52.103Z,51.02
2024-03-08T08:12:52.137Z,51.04
2024-03-08T08:13:52.297Z,51.08
2024-03-08T08:14:52.367Z,50.98
2024-03-08T08:15:52.445Z,50.88
2024-03-08T08:16:52.617Z,50.80
2024-03-08T08:17:52.739Z,50.70
2024-03-08T08:18:52.762Z,50.73
2024-03-08T08:19:52.941Z,50.81
2024-03-08T08:20:52.973Z,51.02
2024-03-08T08:21:53.037Z,51.26
2024-03-08T08:22:53.206Z,51.44
2024-03-08T08:23:53.245Z,51.68
2024-03-08T08:24:53.307Z,51.85
2024-03-08T08:25:53.530Z,52.01
2024-03-08T08:26:53.546Z,52.15
2024-03-08T08:27:53.601Z,52.22
2024-03-08T08:28:53.805Z,52.40
2024-03-08T08:29:53.779Z,52.49
2024-03-08T08:30:53.835Z,52.71
2024-03-08T08:31:53.928Z,53.01
2024-03-08T08:32:54.047Z,53.11
2024-03-08T08:33:54.132Z,53.24
2024-03-08T08:34:54.225Z,53.39
2024-03-08T08:35:54.298Z,53.62
2024-03-08T08:36:54.409Z,53.49
2024-03-08T08:37:54.557Z,53.27
2024-03-08T08:38:54.623Z,53.31
2024-03-08T08:39:54.836Z,53.23
2024-03-08T08:40:55.023Z,53.39
2024-03-08T08:41:56.286Z,53.22
2024-03-08T08:42:55.006Z,53.09
2024-03-08T08:44:03.479Z,53.05
2024-03-08T08:44:56.654Z,53.19
2024-03-08T08:45:55.136Z,53.01
2024-03-08T08:46:57.792Z,52.74
2024-03-08T08:47:56.276Z,52.91
2024-03-08T08:48:55.070Z,53.01
2024-03-08T08:49:55.081Z,53.07
2024-03-08T08:50:55.103Z,53.16
2024-03-08T08:51:56.831Z,53.18
2024-03-08T08:52:55.134Z,53.22
2024-03-08T08:53:55.095Z,53.14
2024-03-08T08:54:55.150Z,53.20
2024-03-08T08:55:55.241Z,53.49
2024-03-08T08:56:55.048Z,53.57
2024-03-08T08:57:55.217Z,53.86
2024-03-08T08:58:55.156Z,54.15
2024-03-08T08:59:55.081Z,54.35
2024-03-08T09:00:55.090Z,54.46
2024-03-08T09:01:55.189Z,54.51
2024-03-08T09:02:55.085Z,54.54
2024-03-08T09:03:55.153Z,54.51
2024-03-08T09:04:55.312Z,54.41
2024-03-08T09:05:55.069Z,54.36
2024-03-08T09:06:55.095Z,54.39
2024-03-08T09:07:55.142Z,54.41
2024-03-08T09:08:55.121Z,54.48
2024-03-08T09:09:55.079Z,54.52
2024-03-08T09:10:55.196Z,54.62
2024-03-08T09:11:55.154Z,54.62
2024-03-08T09:12:55.164Z,54.75
2024-03-08T09:13:55.134Z,54.91
2024-03-08T09:14:55.092Z,55.05
2024-03-08T09:15:55.117Z,55.07
2024-03-08T09:16:55.142Z,54.86
2024-03-08T09:17:55.108Z,54.70
2024-03-08T09:18:55.144Z,54.51
2024-03-08T09:19:55.173Z,54.76
2024-03-08T09:20:55.773Z,54.84
2024-03-08T09:21:55.072Z,54.82
2024-03-08T09:22:55.162Z,54.96
2024-03-08T09:23:55.144Z,55.04
2024-03-08T09:24:55.100Z,55.10
2024-03-08T09:25:55.135Z,55.18
2024-03-08T09:26:55.127Z,55.07
2024-03-08T09:27:55.103Z,54.82
2024-03-08T09:28:55.140Z,54.83
2024-03-08T09:29:55.155Z,54.72
2024-03-08T09:30:59.783Z,54.68
2024-03-08T09:31:56.187Z,54.52
2024-03-08T09:32:57.343Z,54.54
2024-03-08T09:33:55.119Z,54.74
2024-03-08T09:34:55.161Z,55.11
2024-03-08T09:35:55.094Z,54.89
2024-03-08T09:36:55.156Z,54.61
2024-03-08T09:37:55.184Z,54.17
2024-03-08T09:38:55.141Z,54.01
2024-03-08T09:39:55.183Z,54.01
2024-03-08T09:40:55.195Z,53.95
2024-03-08T09:41:55.105Z,53.77
2024-03-08T09:42:55.104Z,55.56
2024-03-08T09:43:55.217Z,54.37
2024-03-08T09:44:55.111Z,54.02
2024-03-08T09:45:55.122Z,53.80
2024-03-08T09:46:55.172Z,54.68
2024-03-08T09:47:55.125Z,54.52
2024-03-08T09:48:55.138Z,54.28
2024-03-08T09:49:55.256Z,54.22
2024-03-08T09:50:55.233Z,54.27
2024-03-08T09:51:55.173Z,54.28
2024-03-08T09:52:55.206Z,54.40
2024-03-08T09:53:55.147Z,54.52
2024-03-08T09:54:55.129Z,54.61
2024-03-08T09:55:55.275Z,54.75
2024-03-08T09:56:55.185Z,54.86
2024-03-08T09:57:55.219Z,55.00
2024-03-08T09:58:55.394Z,55.12
2024-03-08T09:59:55.208Z,55.19
2024-03-08T10:00:55.189Z,55.23
2024-03-08T10:01:55.297Z,55.22
2024-03-08T10:02:55.355Z,55.30
2024-03-08T10:03:55.197Z,55.44
2024-03-08T10:04:55.241Z,55.52
2024-03-08T10:05:55.261Z,55.67
2024-03-08T10:06:55.202Z,55.88
2024-03-08T10:07:55.214Z,56.01
2024-03-08T10:08:55.226Z,56.05
2024-03-08T10:09:55.291Z,56.13
2024-03-08T10:10:55.542Z,56.09
2024-03-08T10:11:55.461Z,56.20
2024-03-08T10:12:55.542Z,56.19
2024-03-08T10:13:55.716Z,56.11
2024-03-08T10:14:55.765Z,56.12
2024-03-08T10:15:55.847Z,56.08
2024-03-08T10:16:56.168Z,56.08
2024-03-08T10:17:56.103Z,56.09
2024-03-08T10:18:56.253Z,56.10
2024-03-08T10:19:56.345Z,56.12
2024-03-08T10:20:56.473Z,56.19
2024-03-08T10:21:56.708Z,56.24
2024-03-08T10:23:06.560Z,56.21
2024-03-08T10:23:57.874Z,56.13
2024-03-08T10:24:56.870Z,56.11
2024-03-08T10:25:56.920Z,56.10
2024-03-08T10:26:56.841Z,56.20
2024-03-08T10:27:56.843Z,56.26
2024-03-08T10:28:57.032Z,56.26
2024-03-08T10:29:56.863Z,56.41
2024-03-08T10:30:56.875Z,56.44
2024-03-08T10:31:56.898Z,56.52
2024-03-08T10:32:56.900Z,56.59
2024-03-08T10:33:56.864Z,56.65
2024-03-08T10:34:57.014Z,56.59
2024-03-08T10:35:57.076Z,56.55
2024-03-08T10:36:57.157Z,56.36
2024-03-08T10:37:57.362Z,56.27
2024-03-08T10:38:57.373Z,56.26
2024-03-08T10:39:57.497Z,56.27
2024-03-08T10:40:57.661Z,56.41
2024-03-08T10:41:57.725Z,56.38
2024-03-08T10:42:57.779Z,56.20
2024-03-08T10:43:57.966Z,56.04
2024-03-08T10:44:57.936Z,55.86
2024-03-08T10:45:58.092Z,55.51
2024-03-08T10:46:58.299Z,55.16
2024-03-08T10:47:58.396Z,55.12
2024-03-08T10:48:58.553Z,54.89
2024-03-08T10:49:58.730Z,54.82
2024-03-08T10:50:58.844Z,54.82
2024-03-08T10:51:59.013Z,54.62
2024-03-08T10:52:59.207Z,54.54
2024-03-08T10:53:59.279Z,54.48
2024-03-08T10:54:59.362Z,54.43
2024-03-08T10:55:59.470Z,54.55
2024-03-08T10:56:59.580Z,54.71
2024-03-08T10:57:59.674Z,54.78
2024-03-08T10:58:59.783Z,54.85
2024-03-08T11:00:00.143Z,54.71
2024-03-08T11:01:00.098Z,54.66
2024-03-08T11:02:00.303Z,54.59
2024-03-08T11:03:00.359Z,54.52
2024-03-08T11:04:00.397Z,54.34
2024-03-08T11:05:00.523Z,54.27
2024-03-08T11:06:00.493Z,54.26
2024-03-08T11:07:00.848Z,54.22
2024-03-08T11:08:00.757Z,54.17
2024-03-08T11:09:00.862Z,54.16
2024-03-08T11:10:00.814Z,54.06
2024-03-08T11:11:00.957Z,53.98
2024-03-08T11:12:00.967Z,53.86
2024-03-08T11:13:00.968Z,53.49
2024-03-08T11:14:01.235Z,53.23
2024-03-08T11:15:01.130Z,53.08
2024-03-08T11:16:01.243Z,53.09
2024-03-08T11:17:01.311Z,53.02
2024-03-08T11:18:01.414Z,52.92
2024-03-08T11:19:01.421Z,52.72
2024-03-08T11:20:01.598Z,52.63
2024-03-08T11:21:01.573Z,52.52
2024-03-08T11:22:01.679Z,52.49
2024-03-08T11:23:01.834Z,52.42
2024-03-08T11:24:01.849Z,52.35
2024-03-08T11:25:01.909Z,52.35
2024-03-08T11:26:01.940Z,52.35
2024-03-08T11:27:01.981Z,52.43
2024-03-08T11:28:02.051Z,52.45
2024-03-08T11:29:02.161Z,52.42
2024-03-08T11:30:02.248Z,52.42
2024-03-08T11:31:02.319Z,52.30
2024-03-08T11:32:02.390Z,52.13
2024-03-08T11:33:02.482Z,52.08
2024-03-08T11:34:02.576Z,52.07
2024-03-08T11:35:02.634Z,52.14
2024-03-08T11:36:03.948Z,52.14
2024-03-08T11:37:02.735Z,52.20
2024-03-08T11:38:02.800Z,52.14
2024-03-08T11:39:02.735Z,51.73
2024-03-08T11:40:02.817Z,52.09
2024-03-08T11:41:03.050Z,52.19
2024-03-08T11:42:03.005Z,51.88
2024-03-08T11:43:55.061Z,51.29
2024-03-08T11:44:55.017Z,51.21
2024-03-08T11:45:55.054Z,51.13
2024-03-08T11:46:55.153Z,51.03
2024-03-08T11:47:58.372Z,50.97
2024-03-08T11:48:55.122Z,51.02
2024-03-08T11:49:55.179Z,51.19
2024-03-08T11:50:55.121Z,51.26
2024-03-08T11:51:55.138Z,51.36
2024-03-08T11:52:55.171Z,51.41
2024-03-08T11:53:55.114Z,51.48
2024-03-08T11:54:55.107Z,51.51
2024-03-08T11:55:55.125Z,51.69
2024-03-08T11:56:55.118Z,51.77
2024-03-08T11:57:55.126Z,51.76
2024-03-08T11:58:55.171Z,51.60
2024-03-08T11:59:57.539Z,50.61
2024-03-08T12:00:55.125Z,51.28
2024-03-08T12:01:55.200Z,50.76
2024-03-08T12:02:55.116Z,49.44
2024-03-08T12:03:55.133Z,48.46
2024-03-08T12:04:55.209Z,49.47
2024-03-08T12:05:57.306Z,48.58
2024-03-08T12:06:55.150Z,48.90
2024-03-08T12:07:55.288Z,48.43
2024-03-08T12:08:55.160Z,48.23
2024-03-08T12:09:55.234Z,47.89
2024-03-08T12:10:55.274Z,47.23
2024-03-08T12:11:55.155Z,46.73
2024-03-08T12:12:55.181Z,46.16
2024-03-08T12:13:55.428Z,46.26
2024-03-08T12:14:55.283Z,46.83
2024-03-08T12:15:55.295Z,46.61
2024-03-08T12:16:55.375Z,46.50
2024-03-08T12:17:55.390Z,46.31
2024-03-08T12:18:55.560Z,46.55
2024-03-08T12:19:55.672Z,46.86
2024-03-08T12:20:55.663Z,47.30
2024-03-08T12:21:55.800Z,47.70
2024-03-08T12:22:55.955Z,48.12
2024-03-08T12:23:56.964Z,48.66
2024-03-08T12:24:56.074Z,48.75
2024-03-08T12:25:56.298Z,49.16
2024-03-08T12:26:56.323Z,49.41
2024-03-08T12:27:56.355Z,49.64
2024-03-08T12:28:56.487Z,49.90
2024-03-08T12:29:56.576Z,50.23
2024-03-08T12:30:56.722Z,50.18
2024-03-08T12:31:56.954Z,50.48
2024-03-08T12:32:56.924Z,50.79
2024-03-08T12:33:57.881Z,50.94
2024-03-08T12:34:57.179Z,51.03
2024-03-08T12:35:57.624Z,50.98
2024-03-08T12:36:57.345Z,50.79
2024-03-08T12:37:57.502Z,50.67
2024-03-08T12:38:57.498Z,50.65
2024-03-08T12:39:57.562Z,50.74
2024-03-08T12:40:57.634Z,50.71
2024-03-08T12:41:57.667Z,50.68
2024-03-08T12:42:57.783Z,50.69
2024-03-08T12:43:57.943Z,50.77
2024-03-08T12:44:57.902Z,50.94
2024-03-08T12:45:57.968Z,51.12
2024-03-08T12:46:58.146Z,51.06
2024-03-08T12:47:58.144Z,50.85
2024-03-08T12:48:58.179Z,50.75
2024-03-08T12:49:58.334Z,50.75
2024-03-08T12:50:58.356Z,50.97
2024-03-08T12:51:58.394Z,51.08
2024-03-08T12:52:58.511Z,51.13
2024-03-08T12:53:58.532Z,51.18